Thomson Dream — 9HA2381 — position and weather

sailwx.info

Track history (hours):
 
Tides and Currents Weather Stations Pressure Air Temp Water Temp Dewpoint Dewpoint Depression Visibility Wind Speed Wind Dir Waves Ship Positions

Thomson Dream

Last reported at 2015-Sep-05 15:32 UTC. Time now 2015-Sep-05 16:25 UTC.
Position N 39°33' E 002°38'.

Length 243 m; draft 7.6 m.

Type: Ship. MMSI: 248480975.

Date/timePositionNaut miles runAvg speedWind from/ knotsBaromVisibWave heightAir tempDewpointWater temp
2015-Sep-05 15:32N 39°33' E 002°38'0 0.0
2015-Sep-05 14:32N 39°33' E 002°38'0 0.0
2015-Sep-05 13:32N 39°33' E 002°38'0 0.0
2015-Sep-05 12:32N 39°33' E 002°38'0 0.0
2015-Sep-05 11:32N 39°33' E 002°38'0 0.0
2015-Sep-05 10:32N 39°33' E 002°38'0 0.0
2015-Sep-05 09:32N 39°33' E 002°38'0 0.0
2015-Sep-05 08:32N 39°33' E 002°38'0 0.0
2015-Sep-05 07:32N 39°33' E 002°38'0 0.0
2015-Sep-05 06:32N 39°33' E 002°38'0 0.0
2015-Sep-05 05:32N 39°33' E 002°38'0 0.0
2015-Sep-05 04:32N 39°33' E 002°38'0 0.0
2015-Sep-05 03:33N 39°33' E 002°38'5 5.1
2015-Sep-05 02:33N 39°28' E 002°36'1010.1
2015-Sep-05 01:33N 39°24' E 002°24'1211.9
2015-Sep-05 00:33N 39°31' E 002°11'1111.0
2015-Sep-04 23:33N 39°42' E 002°13'1616.2
2015-Sep-04 22:33N 39°57' E 002°20'1615.8
2015-Sep-04 21:33N 40°12' E 002°27'1616.1
2015-Sep-04 20:33N 40°28' E 002°33'1716.5
2015-Sep-04 19:33N 40°43' E 002°39'1716.9
2015-Sep-04 18:33N 40°59' E 002°47'  
2015-Sep-01 22:33N 41°11' E 012°29'1616.1
2015-Sep-01 21:33N 40°58' E 012°41'1915.1
2015-Sep-01 20:17N 40°47' E 013°02'3216.3
2015-Sep-01 18:20N 40°38' E 013°43'1215.9
2015-Sep-01 17:33N 40°38' E 013°59'1616.2
2015-Sep-01 16:33N 40°40' E 014°20'25 1.8
2015-Sep-01 02:24N 40°38' E 013°47'2211.0
2015-Sep-01 00:26N 40°39' E 013°19'1110.9
2015-Aug-31 23:28N 40°41' E 013°05'1515.9
2015-Aug-31 22:33N 40°43' E 012°46'1817.5
2015-Aug-31 21:33N 40°45' E 012°23'3416.3
2015-Aug-31 19:26N 40°49' E 011°38'1516.3
2015-Aug-31 18:32N 40°51' E 011°19'2316.6
2015-Aug-31 17:09N 40°54' E 010°48'3416.7
2015-Aug-31 15:07N 40°57' E 010°04'916.8
2015-Aug-31 14:33N 40°59' E 009°51'13 1.2
2015-Aug-31 03:24N 41°09' E 009°41'6210.6
2015-Aug-30 21:33N 41°12' E 008°18'1211.9
2015-Aug-30 20:31N 41°07' E 008°03'1212.3
2015-Aug-30 19:31N 41°02' E 007°49'1212.5
2015-Aug-30 18:33N 40°56' E 007°35'1212.2
2015-Aug-30 17:33N 40°51' E 007°20'4212.3
2015-Aug-30 14:09N 40°34' E 006°30'6912.1
2015-Aug-30 08:26N 40°02' E 005°10'6212.2
2015-Aug-30 03:23N 39°36' E 003°57'1012.3
2015-Aug-30 02:33N 39°32' E 003°45'1212.3
2015-Aug-30 01:33N 39°25' E 003°32'1212.0
2015-Aug-30 00:33N 39°19' E 003°18'1212.2
2015-Aug-29 23:33N 39°14' E 003°04'1211.9
2015-Aug-29 22:33N 39°17' E 002°49'1010.1
2015-Aug-29 21:33N 39°23' E 002°39'1010.0
2015-Aug-29 20:33N 39°33' E 002°38'0 0.0
2015-Aug-29 10:16N 39°33' E 002°38'0 0.0
2015-Aug-29 09:31N 39°33' E 002°38'0 0.0
2015-Aug-29 08:31N 39°33' E 002°38'0 0.0
2015-Aug-29 07:31N 39°33' E 002°38'0 0.0
2015-Aug-29 06:31N 39°33' E 002°38'0 0.0
2015-Aug-29 05:31N 39°33' E 002°38'0 0.0
2015-Aug-29 04:31N 39°33' E 002°38'0 0.1
2015-Aug-29 03:33N 39°33' E 002°38'5 5.4
2015-Aug-29 02:33N 39°28' E 002°36'10 9.7
2015-Aug-29 01:33N 39°24' E 002°24'1110.9
2015-Aug-29 00:33N 39°30' E 002°13'1110.4
2015-Aug-28 23:33N 39°40' E 002°11'1211.9
2015-Aug-28 22:33N 39°52' E 002°11'1110.6
2015-Aug-28 21:33N 40°03' E 002°11'1313.2
2015-Aug-28 20:33N 40°16' E 002°13'1615.8
2015-Aug-28 19:33N 40°32' E 002°15'1616.0
2015-Aug-28 18:33N 40°48' E 002°14'1615.9
2015-Aug-28 17:33N 41°04' E 002°14'1615.5
2015-Aug-28 16:33N 41°19' E 002°14'4 0.8
2015-Aug-28 11:31N 41°22' E 002°11'0 0.0
2015-Aug-28 06:31N 41°22' E 002°11'6 6.2
2015-Aug-28 05:33N 41°21' E 002°19'1616.0
2015-Aug-28 04:33N 41°28' E 002°37'1716.2
2015-Aug-28 03:31N 41°37' E 002°56'2015.8
2015-Aug-28 02:13N 41°48' E 003°20'1216.4
2015-Aug-28 01:31N 41°55' E 003°32'1716.5
2015-Aug-28 00:30N 42°04' E 003°50'4715.9
2015-Aug-27 21:33N 42°30' E 004°44'1111.5
2015-Aug-27 20:33N 42°37' E 004°56'1211.7
2015-Aug-27 19:33N 42°43' E 005°09'1211.9
2015-Aug-27 18:33N 42°47' E 005°25'1211.9
2015-Aug-27 17:33N 42°52' E 005°40'18 9.2
2015-Aug-27 15:34N 43°05' E 005°57'2 0.3
2015-Aug-27 09:11N 43°07' E 005°56'0 0.0
2015-Aug-27 08:29N 43°07' E 005°56'0 0.0
2015-Aug-27 07:29N 43°07' E 005°56'0 0.0
2015-Aug-27 06:33N 43°07' E 005°56'2 2.2
2015-Aug-27 05:33N 43°05' E 005°58'28 8.3
2015-Aug-27 02:12N 43°00' E 006°36'811.9
2015-Aug-27 01:32N 43°04' E 006°45'1111.6
2015-Aug-27 00:33N 43°10' E 006°58'1211.7
2015-Aug-26 23:33N 43°16' E 007°12'1313.1
2015-Aug-26 22:33N 43°22' E 007°28'1616.4
2015-Aug-26 21:33N 43°31' E 007°47'1717.1
2015-Aug-26 20:33N 43°40' E 008°07'2016.5
2015-Aug-26 19:23N 43°51' E 008°29'1315.8
2015-Aug-26 18:33N 43°59' E 008°43'1615.7
2015-Aug-26 17:33N 44°09' E 009°01'  
Track history (hours):
 
Tides and Currents Weather Stations Pressure Air Temp Water Temp Dewpoint Dewpoint Depression Visibility Wind Speed Wind Dir Waves Ship Positions

Thomson Dream

Last reported at 2015-Sep-05 15:32 UTC. Time now 2015-Sep-05 16:25 UTC.
Position N 39°33' E 002°38'.

Length 243 m; draft 7.6 m.

Type: Ship. MMSI: 248480975.

Date/timePositionNaut miles runAvg speedWind from/ knotsBaromVisibWave heightAir tempDewpointWater temp
2015-Sep-05 15:32N 39°33' E 002°38'0 0.0
2015-Sep-05 14:32N 39°33' E 002°38'0 0.0
2015-Sep-05 13:32N 39°33' E 002°38'0 0.0
2015-Sep-05 12:32N 39°33' E 002°38'0 0.0
2015-Sep-05 11:32N 39°33' E 002°38'0 0.0
2015-Sep-05 10:32N 39°33' E 002°38'0 0.0
2015-Sep-05 09:32N 39°33' E 002°38'0 0.0
2015-Sep-05 08:32N 39°33' E 002°38'0 0.0
2015-Sep-05 07:32N 39°33' E 002°38'0 0.0
2015-Sep-05 06:32N 39°33' E 002°38'0 0.0
2015-Sep-05 05:32N 39°33' E 002°38'0 0.0
2015-Sep-05 04:32N 39°33' E 002°38'0 0.0
2015-Sep-05 03:33N 39°33' E 002°38'5 5.1
2015-Sep-05 02:33N 39°28' E 002°36'1010.1
2015-Sep-05 01:33N 39°24' E 002°24'1211.9
2015-Sep-05 00:33N 39°31' E 002°11'1111.0
2015-Sep-04 23:33N 39°42' E 002°13'1616.2
2015-Sep-04 22:33N 39°57' E 002°20'1615.8
2015-Sep-04 21:33N 40°12' E 002°27'1616.1
2015-Sep-04 20:33N 40°28' E 002°33'1716.5
2015-Sep-04 19:33N 40°43' E 002°39'1716.9
2015-Sep-04 18:33N 40°59' E 002°47'  
2015-Sep-01 22:33N 41°11' E 012°29'1616.1
2015-Sep-01 21:33N 40°58' E 012°41'1915.1
2015-Sep-01 20:17N 40°47' E 013°02'3216.3
2015-Sep-01 18:20N 40°38' E 013°43'1215.9
2015-Sep-01 17:33N 40°38' E 013°59'1616.2
2015-Sep-01 16:33N 40°40' E 014°20'25 1.8
2015-Sep-01 02:24N 40°38' E 013°47'2211.0
2015-Sep-01 00:26N 40°39' E 013°19'1110.9
2015-Aug-31 23:28N 40°41' E 013°05'1515.9
2015-Aug-31 22:33N 40°43' E 012°46'1817.5
2015-Aug-31 21:33N 40°45' E 012°23'3416.3
2015-Aug-31 19:26N 40°49' E 011°38'1516.3
2015-Aug-31 18:32N 40°51' E 011°19'2316.6
2015-Aug-31 17:09N 40°54' E 010°48'3416.7
2015-Aug-31 15:07N 40°57' E 010°04'916.8
2015-Aug-31 14:33N 40°59' E 009°51'13 1.2
2015-Aug-31 03:24N 41°09' E 009°41'6210.6
2015-Aug-30 21:33N 41°12' E 008°18'1211.9
2015-Aug-30 20:31N 41°07' E 008°03'1212.3
2015-Aug-30 19:31N 41°02' E 007°49'1212.5
2015-Aug-30 18:33N 40°56' E 007°35'1212.2
2015-Aug-30 17:33N 40°51' E 007°20'4212.3
2015-Aug-30 14:09N 40°34' E 006°30'6912.1
2015-Aug-30 08:26N 40°02' E 005°10'6212.2
2015-Aug-30 03:23N 39°36' E 003°57'1012.3
2015-Aug-30 02:33N 39°32' E 003°45'1212.3
2015-Aug-30 01:33N 39°25' E 003°32'1212.0
2015-Aug-30 00:33N 39°19' E 003°18'1212.2
2015-Aug-29 23:33N 39°14' E 003°04'1211.9
2015-Aug-29 22:33N 39°17' E 002°49'1010.1
2015-Aug-29 21:33N 39°23' E 002°39'1010.0
2015-Aug-29 20:33N 39°33' E 002°38'0 0.0
2015-Aug-29 10:16N 39°33' E 002°38'0 0.0
2015-Aug-29 09:31N 39°33' E 002°38'0 0.0
2015-Aug-29 08:31N 39°33' E 002°38'0 0.0
2015-Aug-29 07:31N 39°33' E 002°38'0 0.0
2015-Aug-29 06:31N 39°33' E 002°38'0 0.0
2015-Aug-29 05:31N 39°33' E 002°38'0 0.0
2015-Aug-29 04:31N 39°33' E 002°38'0 0.1
2015-Aug-29 03:33N 39°33' E 002°38'5 5.4
2015-Aug-29 02:33N 39°28' E 002°36'10 9.7
2015-Aug-29 01:33N 39°24' E 002°24'1110.9
2015-Aug-29 00:33N 39°30' E 002°13'1110.4
2015-Aug-28 23:33N 39°40' E 002°11'1211.9
2015-Aug-28 22:33N 39°52' E 002°11'1110.6
2015-Aug-28 21:33N 40°03' E 002°11'1313.2
2015-Aug-28 20:33N 40°16' E 002°13'1615.8
2015-Aug-28 19:33N 40°32' E 002°15'1616.0
2015-Aug-28 18:33N 40°48' E 002°14'1615.9
2015-Aug-28 17:33N 41°04' E 002°14'1615.5
2015-Aug-28 16:33N 41°19' E 002°14'4 0.8
2015-Aug-28 11:31N 41°22' E 002°11'0 0.0
2015-Aug-28 06:31N 41°22' E 002°11'6 6.2
2015-Aug-28 05:33N 41°21' E 002°19'1616.0
2015-Aug-28 04:33N 41°28' E 002°37'1716.2
2015-Aug-28 03:31N 41°37' E 002°56'2015.8
2015-Aug-28 02:13N 41°48' E 003°20'1216.4
2015-Aug-28 01:31N 41°55' E 003°32'1716.5
2015-Aug-28 00:30N 42°04' E 003°50'4715.9
2015-Aug-27 21:33N 42°30' E 004°44'1111.5
2015-Aug-27 20:33N 42°37' E 004°56'1211.7
2015-Aug-27 19:33N 42°43' E 005°09'1211.9
2015-Aug-27 18:33N 42°47' E 005°25'1211.9
2015-Aug-27 17:33N 42°52' E 005°40'18 9.2
2015-Aug-27 15:34N 43°05' E 005°57'2 0.3
2015-Aug-27 09:11N 43°07' E 005°56'0 0.0
2015-Aug-27 08:29N 43°07' E 005°56'0 0.0
2015-Aug-27 07:29N 43°07' E 005°56'0 0.0
2015-Aug-27 06:33N 43°07' E 005°56'2 2.2
2015-Aug-27 05:33N 43°05' E 005°58'28 8.3
2015-Aug-27 02:12N 43°00' E 006°36'811.9
2015-Aug-27 01:32N 43°04' E 006°45'1111.6
2015-Aug-27 00:33N 43°10' E 006°58'1211.7
2015-Aug-26 23:33N 43°16' E 007°12'1313.1
2015-Aug-26 22:33N 43°22' E 007°28'1616.4
2015-Aug-26 21:33N 43°31' E 007°47'1717.1
2015-Aug-26 20:33N 43°40' E 008°07'2016.5
2015-Aug-26 19:23N 43°51' E 008°29'1315.8
2015-Aug-26 18:33N 43°59' E 008°43'1615.7
2015-Aug-26 17:33N 44°09' E 009°01'  

Dump ship's entire track history